Time;durP1;ratioP1;P1;durP2;ratioP2;P2;SDS_P1;SDS_P2;PMS_P1;PMS_P2;Temp;Humidity;BMP_temperature;BMP_pressure;BME280_temperature;BME280_humidity;BME280_pressure;Samples;Min_cycle;Max_cycle;Signal;HPM_P1;HPM_P2
2021/09/16 00:01:46;;;;;;;18.40;15.30;;;;;;;14.39;98.89;97247.69;4982071;28;20043;-65
2021/09/16 00:04:13;;;;;;;20.83;15.27;;;;;;;14.34;98.12;97206.25;4980506;28;20054;-66
2021/09/16 00:06:40;;;;;;;19.75;13.70;;;;;;;14.65;97.92;97255.78;4980438;28;20465;-66
2021/09/16 00:09:06;;;;;;;19.45;14.80;;;;;;;14.39;98.97;97237.34;4982115;28;20721;-65
2021/09/16 00:11:33;;;;;;;18.35;14.35;;;;;;;13.86;99.07;97174.94;4982061;28;20050;-66
2021/09/16 00:14:00;;;;;;;19.92;14.82;;;;;;;14.13;100.00;97206.13;4981045;28;20093;-65
2021/09/16 00:16:27;;;;;;;22.73;15.73;;;;;;;14.47;98.61;97255.69;4980825;28;21184;-65
2021/09/16 00:18:54;;;;;;;21.23;15.73;;;;;;;14.48;98.57;97256.50;4981813;28;20104;-66
2021/09/16 00:21:21;;;;;;;19.73;15.95;;;;;;;14.48;98.92;97256.50;4980332;28;20137;-66
2021/09/16 00:23:47;;;;;;;19.55;16.13;;;;;;;14.46;99.61;97256.09;4981872;28;20058;-66
2021/09/16 00:26:14;;;;;;;20.23;15.52;;;;;;;14.46;98.91;97262.44;4981952;28;20058;-66
2021/09/16 00:28:41;;;;;;;21.33;14.90;;;;;;;14.30;99.22;97261.19;4980615;28;20050;-66
2021/09/16 00:31:08;;;;;;;21.83;15.63;;;;;;;14.17;99.11;97265.44;4981768;28;20050;-66
2021/09/16 00:33:35;;;;;;;20.48;15.13;;;;;;;14.19;97.52;97260.28;4963793;28;20570;-65
2021/09/16 00:36:03;;;;;;;22.35;15.18;;;;;;;14.07;99.94;97257.81;4980525;28;20054;-65
2021/09/16 00:38:30;;;;;;;23.27;16.20;;;;;;;14.00;100.00;97261.34;4980223;28;20085;-66
2021/09/16 00:40:56;;;;;;;21.58;16.33;;;;;;;14.05;99.01;97261.00;4981606;28;20456;-67
2021/09/16 00:43:23;;;;;;;22.10;15.65;;;;;;;13.92;99.05;97247.75;4981342;28;20046;-67
2021/09/16 00:45:50;;;;;;;18.65;14.68;;;;;;;13.93;100.00;97263.28;4980095;28;20588;-67
2021/09/16 00:48:17;;;;;;;19.08;15.38;;;;;;;14.00;99.63;97268.91;4981871;28;20058;-67
2021/09/16 00:50:43;;;;;;;23.80;14.75;;;;;;;13.93;100.00;97257.69;4981442;28;20488;-67
2021/09/16 00:53:10;;;;;;;21.33;14.80;;;;;;;13.89;99.66;97257.69;4980604;28;20050;-67
2021/09/16 00:55:38;;;;;;;18.73;14.25;;;;;;;13.99;100.00;97251.38;4981679;28;20067;-67
2021/09/16 00:58:07;;;;;;;19.17;14.52;;;;;;;13.53;99.96;97178.66;4981539;28;20417;-66
2021/09/16 01:00:36;;;;;;;19.95;14.15;;;;;;;13.87;99.87;97236.97;4981580;28;20054;-67
2021/09/16 01:03:03;;;;;;;19.42;15.13;;;;;;;13.81;98.56;97255.22;4980015;28;20313;-67
2021/09/16 01:05:29;;;;;;;22.00;15.45;;;;;;;13.76;99.23;97252.81;4980928;28;20520;-67
2021/09/16 01:07:59;;;;;;;25.00;17.15;;;;;;;13.65;99.79;97256.31;4984632;28;20051;-67
2021/09/16 01:10:26;;;;;;;22.60;17.73;;;;;;;11.62;100.00;96945.75;4984938;28;20054;-67
2021/09/16 01:12:53;;;;;;;25.02;18.92;;;;;;;13.01;100.00;97183.78;4985211;28;20533;-67
2021/09/16 01:15:20;;;;;;;27.17;18.58;;;;;;;12.91;100.00;97167.75;4984933;28;20064;-67
2021/09/16 01:17:47;;;;;;;21.25;17.08;;;;;;;13.55;100.00;97243.09;4983100;28;20053;-67
2021/09/16 01:20:14;;;;;;;23.35;17.50;;;;;;;13.46;100.00;97344.78;4984806;28;20058;-67
2021/09/16 01:22:41;;;;;;;23.50;19.00;;;;;;;13.57;100.00;97246.31;4984776;28;20050;-67
2021/09/16 01:25:08;;;;;;;25.35;18.27;;;;;;;13.25;100.00;97228.50;4984744;28;20497;-66
2021/09/16 01:27:35;;;;;;;25.20;19.63;;;;;;;13.50;100.00;97245.41;4984314;28;20062;-67
2021/09/16 01:30:05;;;;;;;24.65;18.35;;;;;;;13.22;100.00;97212.59;4983387;28;20094;-67
2021/09/16 01:32:31;;;;;;;23.00;17.45;;;;;;;13.37;100.00;97197.59;4985023;28;20438;-67
2021/09/16 01:34:58;;;;;;;22.92;17.73;;;;;;;13.77;100.00;97237.72;4985007;28;20050;-67
2021/09/16 01:37:26;;;;;;;106.50;27.15;;;;;;;13.65;100.00;97241.59;4984144;28;20513;-67
2021/09/16 01:39:53;;;;;;;90.13;25.05;;;;;;;13.73;100.00;97242.44;4983034;28;20062;-67
2021/09/16 01:42:19;;;;;;;85.90;26.00;;;;;;;13.62;100.00;97243.16;4984382;28;20051;-67
2021/09/16 01:44:47;;;;;;;55.13;22.67;;;;;;;13.23;100.00;97171.69;4984177;28;20051;-67
2021/09/16 01:47:14;;;;;;;32.58;18.73;;;;;;;13.65;100.00;97234.03;4982878;28;20062;-67
2021/09/16 01:49:41;;;;;;;24.77;18.05;;;;;;;13.80;100.00;97242.50;4984799;28;20141;-67
2021/09/16 01:52:08;;;;;;;52.47;20.85;;;;;;;13.83;100.00;97230.59;4984347;28;20058;-67
2021/09/16 01:54:35;;;;;;;28.65;16.83;;;;;;;13.71;100.00;97234.47;4982885;28;20129;-67
2021/09/16 01:57:02;;;;;;;26.98;17.65;;;;;;;13.66;100.00;97243.19;4983883;28;20058;-67
2021/09/16 01:59:29;;;;;;;27.17;18.50;;;;;;;13.65;100.00;97228.47;4984071;28;20061;-67
2021/09/16 02:01:55;;;;;;;23.83;18.65;;;;;;;13.62;100.00;97223.66;4983590;28;20432;-67
2021/09/16 02:04:22;;;;;;;21.38;16.27;;;;;;;13.79;100.00;97224.19;4984141;28;20140;-67
2021/09/16 02:06:49;;;;;;;20.95;15.82;;;;;;;13.95;100.00;97233.06;4983893;28;20062;-66
2021/09/16 02:09:15;;;;;;;20.92;15.10;;;;;;;13.64;100.00;97182.31;4982817;28;20057;-66
2021/09/16 02:11:42;;;;;;;23.00;15.90;;;;;;;13.86;100.00;97224.25;4982321;28;20055;-66
2021/09/16 02:14:09;;;;;;;27.15;17.27;;;;;;;13.78;100.00;97225.38;4982348;28;20052;-66
2021/09/16 02:16:36;;;;;;;17.88;14.93;;;;;;;13.61;100.00;97191.44;4983182;28;20058;-66
2021/09/16 02:19:04;;;;;;;24.90;15.90;;;;;;;13.37;100.00;97197.59;4981894;28;20054;-66
2021/09/16 02:21:31;;;;;;;23.90;16.23;;;;;;;13.96;100.00;97229.09;4983355;28;20058;-66
2021/09/16 02:23:58;;;;;;;23.08;15.55;;;;;;;13.89;100.00;97220.69;4983959;28;20050;-66
2021/09/16 02:26:24;;;;;;;19.85;14.82;;;;;;;13.87;100.00;97225.84;4982111;28;20406;-66
2021/09/16 02:28:51;;;;;;;26.00;15.93;;;;;;;13.86;100.00;97222.28;4983804;28;20062;-66
2021/09/16 02:31:18;;;;;;;19.92;15.75;;;;;;;13.86;100.00;97213.09;4982086;28;20054;-66
2021/09/16 02:33:45;;;;;;;22.65;16.83;;;;;;;13.79;99.75;97224.19;4983482;28;20050;-66
2021/09/16 02:36:11;;;;;;;25.90;17.58;;;;;;;13.45;100.00;97170.66;4983253;28;20444;-66
2021/09/16 02:38:39;;;;;;;20.80;16.35;;;;;;;13.79;100.00;97208.28;4983147;28;20047;-66
2021/09/16 02:41:07;;;;;;;21.42;16.92;;;;;;;13.81;100.00;97214.28;4981922;28;20081;-66
2021/09/16 02:43:34;;;;;;;23.08;15.73;;;;;;;13.40;100.00;97151.53;4983668;28;20057;-66
2021/09/16 02:46:01;;;;;;;21.27;16.58;;;;;;;13.80;100.00;97214.66;4983528;28;20065;-66
2021/09/16 02:48:28;;;;;;;22.20;15.38;;;;;;;13.75;100.00;97217.81;4983175;28;20077;-66
2021/09/16 02:50:54;;;;;;;22.67;15.32;;;;;;;13.74;100.00;97219.00;4981695;28;20133;-66
2021/09/16 02:53:21;;;;;;;20.73;15.18;;;;;;;13.73;99.31;97220.16;4981670;28;20054;-66
2021/09/16 02:55:48;;;;;;;18.13;15.25;;;;;;;13.75;98.59;97228.94;4982979;28;20056;-66
2021/09/16 02:58:15;;;;;;;21.80;15.77;;;;;;;13.63;98.78;97221.69;4982889;28;20046;-66
2021/09/16 03:00:41;;;;;;;20.73;16.25;;;;;;;13.39;99.89;97195.25;4984005;28;20432;-66
2021/09/16 03:03:09;;;;;;;20.27;16.10;;;;;;;13.63;100.00;97225.28;4983121;28;20050;-66
2021/09/16 03:05:36;;;;;;;22.75;16.23;;;;;;;13.34;100.00;97195.59;4983155;28;20539;-66
2021/09/16 03:08:03;;;;;;;20.65;16.48;;;;;;;13.61;100.00;97224.84;4981818;28;20051;-66
2021/09/16 03:10:30;;;;;;;20.48;16.30;;;;;;;13.25;100.00;97189.56;4983402;28;20059;-66
2021/09/16 03:12:57;;;;;;;21.98;15.93;;;;;;;13.56;100.00;97227.22;4983193;28;20058;-66
2021/09/16 03:15:24;;;;;;;21.52;16.40;;;;;;;13.48;100.00;97231.88;4981580;28;20057;-66
2021/09/16 03:17:53;;;;;;;23.80;15.93;;;;;;;13.51;100.00;97224.78;4982647;28;20478;-67
2021/09/16 03:20:20;;;;;;;23.02;16.95;;;;;;;13.59;100.00;97255.03;4981850;28;20054;-66
2021/09/16 03:22:47;;;;;;;31.25;17.48;;;;;;;13.59;100.00;97227.22;4983077;28;20062;-66
2021/09/16 03:25:14;;;;;;;20.83;16.63;;;;;;;13.23;100.00;97180.78;4982852;28;20521;-67
2021/09/16 03:27:42;;;;;;;19.67;16.13;;;;;;;13.56;100.00;97219.63;4982471;28;20513;-66
2021/09/16 03:30:12;;;;;;;21.70;15.35;;;;;;;13.58;100.00;97220.06;4980531;28;20092;-66
2021/09/16 03:32:39;;;;;;;19.02;15.55;;;;;;;13.53;100.00;97228.75;4982949;28;20047;-66
2021/09/16 03:35:06;;;;;;;20.77;16.15;;;;;;;13.42;100.00;97216.75;4981463;28;20139;-66
2021/09/16 03:37:33;;;;;;;21.92;16.40;;;;;;;13.17;100.00;97187.91;4981122;28;20058;-66
2021/09/16 03:40:01;;;;;;;21.55;15.35;;;;;;;13.38;100.00;97226.25;4982886;28;20073;-66
2021/09/16 03:42:28;;;;;;;22.63;16.73;;;;;;;13.40;100.00;97235.00;4980669;28;20054;-66
2021/09/16 03:44:54;;;;;;;23.60;17.40;;;;;;;13.33;99.33;97232.97;4980965;28;20051;-66
2021/09/16 03:47:21;;;;;;;24.35;17.25;;;;;;;12.86;99.50;97157.78;4981946;28;20440;-66
2021/09/16 03:49:48;;;;;;;23.90;16.95;;;;;;;13.34;99.99;97222.66;4982304;28;20062;-66
2021/09/16 03:52:15;;;;;;;22.20;16.85;;;;;;;13.24;100.00;97229.72;4982579;28;20062;-66
2021/09/16 03:54:41;;;;;;;22.35;17.08;;;;;;;13.29;100.00;97234.91;4981066;28;20061;-66
2021/09/16 03:57:08;;;;;;;23.63;17.80;;;;;;;13.26;100.00;97237.66;4981290;28;20437;-66
2021/09/16 03:59:35;;;;;;;22.05;17.40;;;;;;;12.97;100.00;97194.03;4980739;28;20059;-66
2021/09/16 04:02:02;;;;;;;21.88;16.63;;;;;;;12.82;100.00;97176.41;4980468;28;20057;-66
2021/09/16 04:04:29;;;;;;;27.05;17.67;;;;;;;12.72;100.00;97149.31;4982317;28;20062;-67
2021/09/16 04:06:56;;;;;;;22.55;16.63;;;;;;;13.24;100.00;97238.06;4982338;28;20063;-66
2021/09/16 04:09:22;;;;;;;20.75;15.07;;;;;;;12.60;100.00;97127.31;4980708;28;20062;-66
2021/09/16 04:11:49;;;;;;;20.33;15.65;;;;;;;13.14;99.75;97210.91;4980386;28;20054;-66
2021/09/16 04:14:16;;;;;;;20.95;14.63;;;;;;;13.33;99.50;97241.31;4980546;28;20423;-65
2021/09/16 04:16:42;;;;;;;20.58;15.25;;;;;;;13.38;99.22;97231.81;4981808;28;20069;-66
2021/09/16 04:19:09;;;;;;;18.30;14.63;;;;;;;13.35;100.00;97247.31;4982130;28;20497;-66
2021/09/16 04:21:36;;;;;;;19.65;14.40;;;;;;;13.24;100.00;97220.56;4980642;28;20525;-66
2021/09/16 04:24:03;;;;;;;23.77;14.77;;;;;;;13.12;100.00;97202.16;4982171;28;20054;-65
2021/09/16 04:26:30;;;;;;;19.75;15.07;;;;;;;13.47;99.98;97238.66;4981935;28;20068;-66
2021/09/16 04:28:56;;;;;;;21.17;15.30;;;;;;;13.10;99.90;97182.25;4981826;28;20453;-66
2021/09/16 04:31:23;;;;;;;19.67;14.70;;;;;;;13.48;99.82;97248.59;4980255;28;20047;-66
2021/09/16 04:33:50;;;;;;;20.42;14.88;;;;;;;13.18;99.95;97186.72;4981819;28;20515;-65
2021/09/16 04:36:17;;;;;;;20.00;13.70;;;;;;;13.61;99.21;97241.56;4981999;28;20073;-66
2021/09/16 04:38:43;;;;;;;17.67;13.93;;;;;;;13.60;98.80;97228.84;4979353;28;20053;-65
2021/09/16 04:41:10;;;;;;;28.50;15.68;;;;;;;13.73;100.00;97239.66;4980156;28;20046;-66
2021/09/16 04:43:37;;;;;;;22.05;13.98;;;;;;;13.77;98.85;97293.41;5081336;28;20058;-66
2021/09/16 04:46:03;;;;;;;24.15;13.90;;;;;;;13.84;98.14;97255.25;4981076;28;20111;-66
2021/09/16 04:48:30;;;;;;;21.45;15.23;;;;;;;13.88;97.53;97250.50;4981369;28;20521;-66
2021/09/16 04:50:57;;;;;;;19.05;14.68;;;;;;;13.52;97.58;97185.44;4981350;28;20062;-64
2021/09/16 04:53:23;;;;;;;26.13;18.50;;;;;;;13.99;97.34;97267.31;4980192;28;20051;-63
2021/09/16 04:55:50;;;;;;;23.23;18.30;;;;;;;14.07;96.60;97253.03;4981288;28;20057;-65
2021/09/16 04:58:17;;;;;;;24.00;16.95;;;;;;;14.05;95.68;97244.28;4980903;28;20055;-65
2021/09/16 05:00:44;;;;;;;22.27;16.05;;;;;;;14.26;96.18;97254.75;4981380;28;20066;-66
2021/09/16 05:03:10;;;;;;;20.50;15.63;;;;;;;14.48;94.92;97256.50;4979672;28;20050;-66
2021/09/16 05:05:37;;;;;;;22.70;15.60;;;;;;;14.62;94.89;97253.78;4981297;28;20058;-66
2021/09/16 05:08:04;;;;;;;20.35;14.18;;;;;;;14.63;95.14;97249.81;4981250;28;20046;-66
2021/09/16 05:10:31;;;;;;;21.92;14.52;;;;;;;14.80;94.45;97254.66;4980051;28;20141;-66
2021/09/16 05:12:58;;;;;;;21.67;14.38;;;;;;;14.68;93.67;97194.47;4981496;28;20068;-66
2021/09/16 05:15:25;;;;;;;25.52;14.93;;;;;;;15.14;93.26;97253.19;4981181;28;20531;-66
2021/09/16 05:17:52;;;;;;;19.70;13.48;;;;;;;14.64;93.79;97151.00;4981094;28;20058;-66
2021/09/16 05:20:19;;;;;;;18.20;13.75;;;;;;;15.50;91.53;97235.31;4981054;28;20050;-67
2021/09/16 05:22:45;;;;;;;21.52;14.32;;;;;;;15.65;90.08;97248.09;4980810;28;20063;-68
2021/09/16 05:25:12;;;;;;;19.25;14.30;;;;;;;15.74;89.33;97239.31;4980982;28;20054;-67
2021/09/16 05:27:39;;;;;;;19.75;12.98;;;;;;;14.12;89.07;96959.38;4979889;28;20050;-67
2021/09/16 05:30:06;;;;;;;21.33;12.98;;;;;;;16.00;88.38;97236.91;4981428;28;20093;-67
2021/09/16 05:32:34;;;;;;;19.02;14.73;;;;;;;16.16;87.58;97248.47;4980962;28;20055;-67
2021/09/16 05:35:01;;;;;;;22.13;15.73;;;;;;;16.28;87.51;97230.47;4979530;28;20484;-67
2021/09/16 05:37:30;;;;;;;20.15;15.20;;;;;;;16.50;86.94;97230.03;4979532;28;20062;-67
2021/09/16 05:39:57;;;;;;;16.23;12.90;;;;;;;16.59;84.89;97216.44;4980854;28;20061;-67
2021/09/16 05:42:25;;;;;;;19.45;13.35;;;;;;;15.27;82.77;96964.13;4977454;28;20551;-64
2021/09/16 05:44:54;;;;;;;20.65;13.25;;;;;;;17.08;82.57;97239.78;4976442;28;20475;-65
2021/09/16 05:47:21;;;;;;;25.52;13.45;;;;;;;17.14;81.29;97235.34;4978073;28;20051;-66
2021/09/16 05:49:47;;;;;;;15.60;12.60;;;;;;;17.27;80.77;97230.88;4979839;28;20057;-66
2021/09/16 05:52:15;;;;;;;19.85;14.15;;;;;;;16.75;81.31;97142.44;4980278;28;20165;-63
2021/09/16 05:54:42;;;;;;;19.95;13.05;;;;;;;17.50;80.32;97223.56;4981432;28;20054;-64
2021/09/16 05:57:09;;;;;;;15.73;12.38;;;;;;;17.69;79.48;97220.19;4981891;28;20064;-62
2021/09/16 05:59:35;;;;;;;23.50;14.00;;;;;;;17.22;78.48;97127.72;5096050;28;20048;-65
2021/09/16 06:02:02;;;;;;;21.33;13.77;;;;;;;17.97;77.85;97230.38;4988491;28;20057;-66
2021/09/16 06:04:30;;;;;;;25.17;12.90;;;;;;;18.09;77.28;97232.66;4982365;28;20510;-64
2021/09/16 06:07:03;;;;;;;21.77;13.32;;;;;;;18.12;76.62;97209.41;4983295;28;20468;-65
2021/09/16 06:09:31;;;;;;;21.70;13.43;;;;;;;18.43;75.17;97247.56;4983498;28;20068;-62
2021/09/16 06:11:59;;;;;;;20.67;12.82;;;;;;;18.53;75.20;97235.44;4983289;28;20047;-62
2021/09/16 06:14:26;;;;;;;21.25;12.88;;;;;;;18.35;74.66;97173.13;5083719;28;20062;-66
2021/09/16 06:16:53;;;;;;;14.43;12.82;;;;;;;18.53;74.49;97167.31;4981081;28;20441;-69
2021/09/16 06:19:20;;;;;;;14.63;11.48;;;;;;;19.15;73.49;97235.09;4983120;28;20050;-65
2021/09/16 06:21:46;;;;;;;13.40;10.65;;;;;;;19.31;73.41;97224.06;4981673;28;20050;-64
2021/09/16 06:24:13;;;;;;;16.77;12.63;;;;;;;19.41;73.89;97209.84;4982087;28;20501;-63
2021/09/16 06:26:40;;;;;;;15.80;11.50;;;;;;;18.87;75.08;97160.47;4981739;28;20058;-61
2021/09/16 06:29:07;;;;;;;13.32;11.57;;;;;;;19.12;75.52;97205.84;4996271;28;20082;-64
2021/09/16 06:31:33;;;;;;;16.88;11.73;;;;;;;19.58;74.91;97234.06;4982792;28;20054;-65
2021/09/16 06:34:00;;;;;;;19.20;14.27;;;;;;;19.72;74.02;97232.28;4997935;28;20062;-62
2021/09/16 06:36:27;;;;;;;13.80;11.55;;;;;;;18.27;75.06;97081.06;4983600;28;20074;-69
2021/09/16 06:38:54;;;;;;;17.55;12.48;;;;;;;19.85;74.43;97202.34;4978148;28;20051;-67
2021/09/16 06:41:21;;;;;;;14.18;12.15;;;;;;;20.20;71.65;97232.72;4981287;28;20050;-69
2021/09/16 06:43:47;;;;;;;16.00;11.52;;;;;;;20.29;72.21;97232.94;4982525;28;20137;-62
2021/09/16 06:46:14;;;;;;;14.10;11.48;;;;;;;20.28;72.12;97228.53;4982232;28;20050;-65
2021/09/16 06:48:41;;;;;;;17.58;12.07;;;;;;;20.03;73.97;97214.88;4980803;28;20061;-63
2021/09/16 06:51:08;;;;;;;15.30;10.85;;;;;;;20.22;71.16;97216.16;4981075;28;20111;-65
2021/09/16 06:53:56;;;;;;;13.43;11.68;;;;;;;19.95;71.39;97125.44;4981200;28;20050;-68
2021/09/16 06:56:22;;;;;;;15.07;12.65;;;;;;;20.25;71.77;97171.09;4983259;28;20053;-68
2021/09/16 06:58:49;;;;;;;16.70;12.18;;;;;;;20.56;70.29;97174.53;4981717;28;20066;-62
2021/09/16 07:01:16;;;;;;;16.85;11.45;;;;;;;20.60;69.69;97131.00;4981967;28;20689;-67
2021/09/16 07:03:43;;;;;;;13.30;11.05;;;;;;;21.06;68.52;97166.66;4980262;28;20125;-66
2021/09/16 07:06:10;;;;;;;16.95;12.30;;;;;;;21.62;68.21;97213.28;4981628;28;20088;-64
2021/09/16 07:08:36;;;;;;;15.35;12.27;;;;;;;21.74;67.12;97187.19;4975181;28;20471;-60
2021/09/16 07:11:03;;;;;;;15.05;12.23;;;;;;;21.75;67.55;97176.72;4970445;28;20062;-65
2021/09/16 07:13:30;;;;;;;16.00;12.75;;;;;;;21.56;65.81;97200.13;4981481;28;20053;-63
2021/09/16 07:15:57;;;;;;;16.17;13.00;;;;;;;22.07;64.90;97222.66;4982610;28;20050;-63
2021/09/16 07:18:23;;;;;;;16.20;12.05;;;;;;;21.38;64.50;97104.72;4981511;28;20525;-62
2021/09/16 07:20:50;;;;;;;17.85;12.68;;;;;;;22.19;64.82;97227.56;5003971;28;20054;-65
2021/09/16 07:23:17;;;;;;;18.05;12.73;;;;;;;22.27;63.87;97214.88;4963033;28;20055;-62
2021/09/16 07:25:44;;;;;;;14.82;12.13;;;;;;;22.51;64.46;97234.44;4977400;28;20051;-63
2021/09/16 07:28:11;;;;;;;16.73;12.63;;;;;;;22.54;63.45;97194.03;5059684;28;20058;-66
2021/09/16 07:30:37;;;;;;;17.90;12.32;;;;;;;22.43;63.04;97149.91;4982740;28;20064;-63
2021/09/16 07:33:04;;;;;;;16.60;12.02;;;;;;;22.72;61.46;97154.78;4981903;28;20501;-61
2021/09/16 07:35:31;;;;;;;13.25;11.85;;;;;;;23.36;60.96;97223.09;4983575;28;20058;-65
2021/09/16 07:37:58;;;;;;;15.48;13.00;;;;;;;23.58;61.14;97221.22;4981900;28;20073;-62
2021/09/16 07:40:24;;;;;;;13.93;11.73;;;;;;;23.86;58.62;97222.34;4978106;28;20494;-64
2021/09/16 07:42:51;;;;;;;23.92;16.50;;;;;;;23.65;58.83;97160.78;5004302;28;20524;-64
2021/09/16 07:45:18;;;;;;;18.77;14.27;;;;;;;24.22;58.34;97234.13;4976962;28;20061;-63
2021/09/16 07:47:45;;;;;;;22.35;13.48;;;;;;;24.38;57.64;97216.97;4981694;28;20046;-66
2021/09/16 07:50:11;;;;;;;19.15;12.77;;;;;;;24.41;56.97;97216.06;4981542;28;20497;-61
2021/09/16 07:52:38;;;;;;;18.95;13.27;;;;;;;24.56;57.31;97205.84;4980977;28;20050;-65
2021/09/16 07:55:05;;;;;;;15.95;13.27;;;;;;;24.34;56.30;97158.88;4972531;28;20049;-63
2021/09/16 07:57:32;;;;;;;15.38;12.45;;;;;;;24.99;54.90;97217.22;4982275;28;20065;-64
2021/09/16 07:59:59;;;;;;;14.52;12.20;;;;;;;24.77;54.76;97168.25;4981523;28;20568;-61
2021/09/16 08:02:26;;;;;;;19.80;13.10;;;;;;;25.34;53.63;97211.50;4981239;28;20131;-63
2021/09/16 08:04:53;;;;;;;14.55;12.30;;;;;;;24.05;53.04;96996.94;5039095;28;20127;-63
2021/09/16 08:07:20;;;;;;;14.10;12.57;;;;;;;25.46;53.39;97210.63;5027431;28;20050;-63
2021/09/16 08:09:47;;;;;;;16.15;12.52;;;;;;;25.71;53.05;97218.94;4973117;28;20060;-66
2021/09/16 08:12:14;;;;;;;13.52;12.07;;;;;;;25.79;53.01;97208.88;4980456;28;20524;-65
2021/09/16 08:14:41;;;;;;;14.55;12.20;;;;;;;25.78;51.46;97213.00;4978403;28;20050;-64
2021/09/16 08:17:08;;;;;;;15.35;12.00;;;;;;;25.39;51.47;97134.31;4980947;28;20080;-70
2021/09/16 08:19:39;;;;;;;16.63;12.65;;;;;;;25.95;51.42;97205.78;4982018;28;20058;-71
2021/09/16 08:22:06;;;;;;;14.63;12.18;;;;;;;26.13;52.55;97211.56;4981506;28;20050;-67
2021/09/16 08:24:35;;;;;;;22.23;13.15;;;;;;;26.18;51.10;97208.09;4980322;28;20054;-66
2021/09/16 08:27:03;;;;;;;14.98;12.55;;;;;;;26.26;51.35;97209.38;4981222;28;20055;-71
2021/09/16 08:29:30;;;;;;;13.63;11.98;;;;;;;26.41;50.26;97204.69;4980703;28;20056;-65
2021/09/16 08:31:57;;;;;;;14.90;12.35;;;;;;;26.42;50.79;97200.56;4980822;28;20061;-61
2021/09/16 08:34:25;;;;;;;17.88;11.02;;;;;;;26.29;49.03;97169.47;4981244;28;20100;-68
2021/09/16 08:36:53;;;;;;;13.60;10.57;;;;;;;26.36;49.52;97162.69;4980162;28;20057;-69
2021/09/16 08:39:21;;;;;;;16.80;10.98;;;;;;;26.43;47.64;97202.16;4980429;28;20086;-64
2021/09/16 08:41:48;;;;;;;12.35;9.90;;;;;;;26.23;48.16;97196.91;4979449;28;20087;-63
2021/09/16 08:44:16;;;;;;;14.32;10.88;;;;;;;26.45;46.79;97172.00;4981310;28;20054;-66
2021/09/16 08:46:43;;;;;;;13.05;9.70;;;;;;;26.52;46.90;97160.31;4979737;28;20058;-68
2021/09/16 08:49:10;;;;;;;18.83;10.38;;;;;;;25.91;46.17;97049.78;4978991;28;20493;-71
2021/09/16 08:51:41;;;;;;;13.63;10.07;;;;;;;26.54;45.24;97112.31;4980531;28;20551;-66
2021/09/16 08:54:10;;;;;;;11.82;10.60;;;;;;;27.28;45.03;97197.16;4978845;28;20051;-66
2021/09/16 08:56:39;;;;;;;17.23;11.40;;;;;;;27.30;45.20;97157.59;4980770;28;20069;-65
2021/09/16 08:59:08;;;;;;;12.00;10.57;;;;;;;27.52;44.70;97186.63;4981746;28;20595;-67
2021/09/16 09:01:36;;;;;;;12.77;9.82;;;;;;;27.22;44.21;97112.88;4981106;28;20501;-63
2021/09/16 09:04:04;;;;;;;13.88;9.80;;;;;;;27.97;44.66;97186.50;4975852;28;20070;-67
2021/09/16 09:06:38;;;;;;;12.82;9.68;;;;;;;28.13;44.97;97180.41;4980486;28;20511;-62
2021/09/16 09:09:09;;;;;;;15.52;10.70;;;;;;;28.35;43.90;97179.28;4970060;28;20517;-66
2021/09/16 09:11:57;;;;;;;12.45;9.30;;;;;;;27.86;42.77;97188.25;5009798;28;20085;-61
2021/09/16 09:14:36;;;;;;;34.60;11.52;;;;;;;27.90;42.74;97152.66;4979090;28;20052;-67
2021/09/16 09:17:16;;;;;;;15.10;12.98;;;;;;;28.34;42.43;97177.72;4980951;28;20061;-63
2021/09/16 09:19:43;;;;;;;16.27;11.77;;;;;;;28.34;39.77;97177.72;4981289;28;20498;-65
2021/09/16 09:22:10;;;;;;;13.07;9.75;;;;;;;28.29;39.13;97170.63;4977339;28;20046;-65
2021/09/16 09:24:41;;;;;;;15.93;9.27;;;;;;;28.48;39.21;97177.03;4971451;28;20053;-66
2021/09/16 09:27:30;;;;;;;11.00;9.35;;;;;;;28.53;39.82;97165.75;4979520;28;20047;-66
2021/09/16 09:30:09;;;;;;;15.80;10.65;;;;;;;28.34;41.06;97146.38;4988271;28;20116;-70
2021/09/16 09:32:44;;;;;;;11.45;9.45;;;;;;;28.86;38.98;97162.78;4983907;28;20555;-68
2021/09/16 09:35:43;;;;;;;12.32;10.10;;;;;;;28.87;40.79;97152.94;4984344;28;20153;-68
2021/09/16 09:38:23;;;;;;;12.23;10.23;;;;;;;28.64;42.29;97156.63;4983544;28;20491;-70
2021/09/16 09:40:58;;;;;;;18.25;11.70;;;;;;;28.86;39.78;97154.22;4984642;28;20054;-70
2021/09/16 09:43:35;;;;;;;14.27;11.10;;;;;;;28.91;40.12;97125.03;4982618;28;20134;-70
2021/09/16 09:46:11;;;;;;;11.60;9.43;;;;;;;29.10;39.13;97150.03;4983405;28;20067;-70
2021/09/16 09:48:57;;;;;;;13.65;9.48;;;;;;;28.44;38.90;97034.66;4980370;28;20139;-70
2021/09/16 09:51:44;;;;;;;12.20;8.82;;;;;;;29.26;35.55;97151.66;4983735;28;20467;-68
2021/09/16 09:54:33;;;;;;;11.23;9.85;;;;;;;29.23;37.00;97146.91;4982728;28;20142;-65
2021/09/16 09:57:09;;;;;;;12.98;9.13;;;;;;;29.57;35.98;97149.06;4981276;28;20058;-73
2021/09/16 10:00:20;;;;;;;13.23;9.07;;;;;;;29.82;35.79;97141.94;4982319;28;20517;-70
2021/09/16 10:02:55;;;;;;;10.27;7.97;;;;;;;29.71;33.72;97136.84;4972309;28;20065;-66
2021/09/16 10:05:27;;;;;;;9.98;8.60;;;;;;;29.87;33.87;97150.63;4972935;28;20068;-68
2021/09/16 10:07:56;;;;;;;9.02;8.07;;;;;;;29.89;33.43;97142.34;4982444;28;20058;-63
2021/09/16 10:10:25;;;;;;;8.55;7.75;;;;;;;29.87;32.42;97122.06;4981746;28;20061;-71
2021/09/16 10:12:53;;;;;;;11.15;8.45;;;;;;;29.80;34.69;97116.72;4984045;28;20554;-65
2021/09/16 10:15:22;;;;;;;13.13;9.18;;;;;;;30.12;34.19;97138.53;4979096;28;20077;-62
2021/09/16 10:17:51;;;;;;;8.27;7.45;;;;;;;29.71;32.39;97134.00;5022924;28;20046;-64
2021/09/16 10:20:20;;;;;;;10.32;8.55;;;;;;;29.91;33.63;97071.19;4983295;28;20547;-66
2021/09/16 10:22:49;;;;;;;9.55;8.07;;;;;;;30.58;32.69;97130.84;4983891;28;20050;-65
2021/09/16 10:25:19;;;;;;;10.23;8.38;;;;;;;30.27;32.72;97067.78;4983683;28;20623;-67
2021/09/16 10:28:07;;;;;;;12.70;8.85;;;;;;;30.66;32.83;97120.56;4982521;28;20046;-69
2021/09/16 10:30:37;;;;;;;9.13;7.90;;;;;;;30.54;32.73;97098.81;4980698;28;20416;-66
2021/09/16 10:33:10;;;;;;;13.05;8.02;;;;;;;30.65;32.26;97112.47;4981352;28;20054;-67
2021/09/16 10:36:03;;;;;;;10.75;7.03;;;;;;;30.94;31.01;97118.81;4981290;28;20068;-69
2021/09/16 10:38:30;;;;;;;8.53;7.20;;;;;;;31.05;31.30;97123.09;4964826;28;20124;-62
2021/09/16 10:41:17;;;;;;;10.95;7.75;;;;;;;31.17;30.33;97113.31;4981680;28;20085;-64
2021/09/16 10:43:47;;;;;;;11.82;7.07;;;;;;;30.94;30.97;97113.09;4981598;28;20410;-70
2021/09/16 10:46:35;;;;;;;13.55;7.90;;;;;;;30.90;31.05;97108.88;5022186;28;20140;-66
2021/09/16 10:49:21;;;;;;;12.32;7.75;;;;;;;31.07;31.30;97111.91;4981679;28;20058;-64
2021/09/16 10:51:49;;;;;;;9.45;7.80;;;;;;;30.83;31.74;97049.22;4981804;28;20054;-68
2021/09/16 10:54:28;;;;;;;13.50;9.10;;;;;;;31.13;31.11;97096.34;4982305;28;20060;-67
2021/09/16 10:57:13;;;;;;;7.72;7.03;;;;;;;31.42;30.89;97101.06;4981925;28;20069;-71
2021/09/16 10:59:52;;;;;;;7.95;7.22;;;;;;;31.51;30.29;97095.16;4983352;28;20082;-68
2021/09/16 11:02:48;;;;;;;9.07;7.35;;;;;;;31.79;29.52;97090.44;4983019;28;20153;-69
2021/09/16 11:05:18;;;;;;;9.75;7.20;;;;;;;31.41;29.36;97036.50;4978111;28;20062;-65
2021/09/16 11:07:49;;;;;;;9.68;7.85;;;;;;;31.89;29.71;97100.41;4979260;28;20038;-65
2021/09/16 11:10:15;;;;;;;8.48;7.25;;;;;;;32.03;29.91;97093.72;4980673;28;20057;-65
2021/09/16 11:13:07;;;;;;;9.98;8.65;;;;;;;31.64;29.98;97079.13;4981032;28;20510;-67
2021/09/16 11:15:36;;;;;;;10.85;7.85;;;;;;;31.29;29.45;96989.00;4981232;28;20136;-66
2021/09/16 11:18:25;;;;;;;8.43;7.70;;;;;;;32.00;29.46;97083.28;4981700;28;20054;-68
2021/09/16 11:21:04;;;;;;;7.78;6.97;;;;;;;31.96;29.04;97079.88;4982811;28;20054;-68
2021/09/16 11:23:42;;;;;;;9.93;7.85;;;;;;;32.09;28.36;97077.38;4980923;28;20464;-68
2021/09/16 11:26:19;;;;;;;9.25;7.28;;;;;;;31.65;28.93;96993.94;4982433;28;20054;-68